sensor_id;sensor_type;location;lat;lon;timestamp;pressure;altitude;pressure_sealevel;temperature;humidity
49585;BME280;35491;49.142;9.210;2023-05-22T00:00:31;99418.75;;;18.06;69.59
49585;BME280;35491;49.142;9.210;2023-05-22T00:01:37;99421.22;;;18.01;69.50
49585;BME280;35491;49.142;9.210;2023-05-22T00:02:42;99419.78;;;17.99;69.94
49585;BME280;35491;49.142;9.210;2023-05-22T00:03:46;99422.25;;;17.93;70.17
49585;BME280;35491;49.142;9.210;2023-05-22T00:04:50;99419.16;;;17.90;70.27
49585;BME280;35491;49.142;9.210;2023-05-22T00:05:54;99411.22;;;17.88;70.03
49585;BME280;35491;49.142;9.210;2023-05-22T00:06:58;99414.38;;;17.85;70.50
49585;BME280;35491;49.142;9.210;2023-05-22T00:08:03;99412.69;;;17.77;70.69
49585;BME280;35491;49.142;9.210;2023-05-22T00:09:04;99412.69;;;17.71;71.16
49585;BME280;35491;49.142;9.210;2023-05-22T00:10:09;99407.91;;;17.66;71.15
49585;BME280;35491;49.142;9.210;2023-05-22T00:11:10;99412.66;;;17.64;71.41
49585;BME280;35491;49.142;9.210;2023-05-22T00:12:14;99401.44;;;17.60;71.21
49585;BME280;35491;49.142;9.210;2023-05-22T00:13:16;99405.81;;;17.61;71.26
49585;BME280;35491;49.142;9.210;2023-05-22T00:14:20;99399.59;;;17.61;70.95
49585;BME280;35491;49.142;9.210;2023-05-22T00:15:21;99403.31;;;17.53;71.53
49585;BME280;35491;49.142;9.210;2023-05-22T00:16:25;99402.28;;;17.54;71.52
49585;BME280;35491;49.142;9.210;2023-05-22T00:17:29;99401.00;;;17.50;71.44
49585;BME280;35491;49.142;9.210;2023-05-22T00:18:33;99408.47;;;17.48;71.53
49585;BME280;35491;49.142;9.210;2023-05-22T00:19:34;99413.69;;;17.43;71.60
49585;BME280;35491;49.142;9.210;2023-05-22T00:20:38;99406.41;;;17.37;71.69
49585;BME280;35491;49.142;9.210;2023-05-22T00:21:40;99404.94;;;17.27;72.04
49585;BME280;35491;49.142;9.210;2023-05-22T00:22:44;99407.84;;;17.19;72.03
49585;BME280;35491;49.142;9.210;2023-05-22T00:23:45;99408.00;;;17.18;72.04
49585;BME280;35491;49.142;9.210;2023-05-22T00:24:49;99415.91;;;17.12;72.34
49585;BME280;35491;49.142;9.210;2023-05-22T00:25:50;99415.50;;;17.09;72.37
49585;BME280;35491;49.142;9.210;2023-05-22T00:26:54;99417.75;;;17.12;72.35
49585;BME280;35491;49.142;9.210;2023-05-22T00:27:55;99412.53;;;17.04;72.45
49585;BME280;35491;49.142;9.210;2023-05-22T00:28:59;99412.16;;;17.07;72.50
49585;BME280;35491;49.142;9.210;2023-05-22T00:30:00;99420.88;;;17.09;72.22
49585;BME280;35491;49.142;9.210;2023-05-22T00:31:04;99415.06;;;17.12;71.91
49585;BME280;35491;49.142;9.210;2023-05-22T00:32:06;99424.41;;;17.09;71.98
49585;BME280;35491;49.142;9.210;2023-05-22T00:33:12;99419.63;;;17.05;72.34
49585;BME280;35491;49.142;9.210;2023-05-22T00:34:14;99417.94;;;17.04;72.14
49585;BME280;35491;49.142;9.210;2023-05-22T00:35:18;99410.47;;;17.06;71.92
49585;BME280;35491;49.142;9.210;2023-05-22T00:36:19;99411.91;;;17.02;72.32
49585;BME280;35491;49.142;9.210;2023-05-22T00:37:23;99410.03;;;16.95;72.59
49585;BME280;35491;49.142;9.210;2023-05-22T00:38:29;99409.56;;;16.92;72.72
49585;BME280;35491;49.142;9.210;2023-05-22T00:39:33;99412.25;;;16.85;73.14
49585;BME280;35491;49.142;9.210;2023-05-22T00:40:34;99404.94;;;16.79;73.31
49585;BME280;35491;49.142;9.210;2023-05-22T00:41:38;99418.25;;;16.80;73.36
49585;BME280;35491;49.142;9.210;2023-05-22T00:42:40;99409.31;;;16.80;73.23
49585;BME280;35491;49.142;9.210;2023-05-22T00:43:44;99405.13;;;16.77;73.55
49585;BME280;35491;49.142;9.210;2023-05-22T00:44:49;99424.06;;;16.84;72.94
49585;BME280;35491;49.142;9.210;2023-05-22T00:45:50;99415.78;;;16.92;72.95
49585;BME280;35491;49.142;9.210;2023-05-22T00:46:54;99419.41;;;16.99;72.47
49585;BME280;35491;49.142;9.210;2023-05-22T00:47:56;99417.53;;;17.07;72.34
49585;BME280;35491;49.142;9.210;2023-05-22T00:49:03;99418.41;;;17.14;72.03
49585;BME280;35491;49.142;9.210;2023-05-22T00:50:05;99419.03;;;17.16;71.78
49585;BME280;35491;49.142;9.210;2023-05-22T00:51:09;99421.34;;;17.19;71.48
49585;BME280;35491;49.142;9.210;2023-05-22T00:52:12;99423.81;;;17.21;71.49
49585;BME280;35491;49.142;9.210;2023-05-22T00:53:20;99417.38;;;17.22;71.27
49585;BME280;35491;49.142;9.210;2023-05-22T00:54:21;99426.34;;;17.29;71.16
49585;BME280;35491;49.142;9.210;2023-05-22T00:55:26;99424.66;;;17.28;71.23
49585;BME280;35491;49.142;9.210;2023-05-22T00:56:27;99431.53;;;17.24;71.61
49585;BME280;35491;49.142;9.210;2023-05-22T00:57:32;99425.06;;;17.18;71.61
49585;BME280;35491;49.142;9.210;2023-05-22T00:58:33;99428.56;;;17.12;72.19
49585;BME280;35491;49.142;9.210;2023-05-22T00:59:37;99427.50;;;17.06;72.21
49585;BME280;35491;49.142;9.210;2023-05-22T01:00:39;99427.72;;;17.05;72.32
49585;BME280;35491;49.142;9.210;2023-05-22T01:01:44;99417.13;;;17.03;72.78
49585;BME280;35491;49.142;9.210;2023-05-22T01:02:46;99427.50;;;16.99;73.04
49585;BME280;35491;49.142;9.210;2023-05-22T01:03:51;99421.47;;;16.97;72.78
49585;BME280;35491;49.142;9.210;2023-05-22T01:04:56;99417.50;;;16.93;73.41
49585;BME280;35491;49.142;9.210;2023-05-22T01:06:00;99418.50;;;16.92;73.25
49585;BME280;35491;49.142;9.210;2023-05-22T01:07:01;99419.16;;;16.94;73.11
49585;BME280;35491;49.142;9.210;2023-05-22T01:08:06;99420.38;;;16.92;73.07
49585;BME280;35491;49.142;9.210;2023-05-22T01:09:08;99419.16;;;16.94;73.33
49585;BME280;35491;49.142;9.210;2023-05-22T01:10:12;99422.88;;;16.93;73.29
49585;BME280;35491;49.142;9.210;2023-05-22T01:11:17;99420.44;;;16.98;73.03
49585;BME280;35491;49.142;9.210;2023-05-22T01:12:30;99420.81;;;16.95;73.37
49585;BME280;35491;49.142;9.210;2023-05-22T01:13:40;99432.91;;;16.99;72.97
49585;BME280;35491;49.142;9.210;2023-05-22T01:14:48;99422.03;;;16.93;73.32
49585;BME280;35491;49.142;9.210;2023-05-22T01:15:58;99422.63;;;16.88;73.71
49585;BME280;35491;49.142;9.210;2023-05-22T01:17:16;99423.44;;;16.82;73.84
49585;BME280;35491;49.142;9.210;2023-05-22T01:18:26;99426.28;;;16.74;74.15
49585;BME280;35491;49.142;9.210;2023-05-22T01:19:51;99425.66;;;16.65;75.13
49585;BME280;35491;49.142;9.210;2023-05-22T01:21:08;99424.63;;;16.73;74.19
49585;BME280;35491;49.142;9.210;2023-05-22T01:22:39;99423.16;;;16.70;74.57
49585;BME280;35491;49.142;9.210;2023-05-22T01:25:39;99419.69;;;16.76;74.02
49585;BME280;35491;49.142;9.210;2023-05-22T01:27:05;99417.16;;;16.75;73.99
49585;BME280;35491;49.142;9.210;2023-05-22T01:28:40;99424.41;;;16.67;74.47
49585;BME280;35491;49.142;9.210;2023-05-22T01:29:46;99419.84;;;16.68;74.38
49585;BME280;35491;49.142;9.210;2023-05-22T01:30:59;99421.50;;;16.69;74.47
49585;BME280;35491;49.142;9.210;2023-05-22T01:32:03;99425.88;;;16.70;74.24
49585;BME280;35491;49.142;9.210;2023-05-22T01:33:08;99425.44;;;16.66;74.37
49585;BME280;35491;49.142;9.210;2023-05-22T01:34:13;99427.91;;;16.61;74.73
49585;BME280;35491;49.142;9.210;2023-05-22T01:35:20;99418.34;;;16.59;74.72
49585;BME280;35491;49.142;9.210;2023-05-22T01:36:27;99424.31;;;16.54;75.10
49585;BME280;35491;49.142;9.210;2023-05-22T01:37:33;99422.88;;;16.51;75.21
49585;BME280;35491;49.142;9.210;2023-05-22T01:38:35;99420.16;;;16.51;75.04
49585;BME280;35491;49.142;9.210;2023-05-22T01:39:40;99421.63;;;16.54;74.73
49585;BME280;35491;49.142;9.210;2023-05-22T01:40:44;99429.34;;;16.57;74.52
49585;BME280;35491;49.142;9.210;2023-05-22T01:41:49;99420.59;;;16.55;74.62
49585;BME280;35491;49.142;9.210;2023-05-22T01:42:51;99423.13;;;16.57;74.68
49585;BME280;35491;49.142;9.210;2023-05-22T01:43:55;99426.25;;;16.60;74.71
49585;BME280;35491;49.142;9.210;2023-05-22T01:44:56;99428.94;;;16.60;74.42
49585;BME280;35491;49.142;9.210;2023-05-22T01:46:03;99429.75;;;16.61;74.50
49585;BME280;35491;49.142;9.210;2023-05-22T01:47:06;99427.91;;;16.61;74.44
49585;BME280;35491;49.142;9.210;2023-05-22T01:48:10;99429.59;;;16.69;74.23
49585;BME280;35491;49.142;9.210;2023-05-22T01:49:13;99424.63;;;16.73;74.20
49585;BME280;35491;49.142;9.210;2023-05-22T01:50:18;99424.03;;;16.77;73.97
49585;BME280;35491;49.142;9.210;2023-05-22T01:51:34;99430.06;;;16.79;73.83
49585;BME280;35491;49.142;9.210;2023-05-22T01:52:47;99424.69;;;16.86;73.90
49585;BME280;35491;49.142;9.210;2023-05-22T01:53:57;99419.72;;;16.90;73.51
49585;BME280;35491;49.142;9.210;2023-05-22T01:55:10;99424.56;;;16.94;73.04
49585;BME280;35491;49.142;9.210;2023-05-22T01:56:15;99425.59;;;16.93;73.11
49585;BME280;35491;49.142;9.210;2023-05-22T01:57:33;99430.59;;;16.96;73.06
49585;BME280;35491;49.142;9.210;2023-05-22T01:58:39;99432.25;;;16.97;72.71
49585;BME280;35491;49.142;9.210;2023-05-22T01:59:48;99430.00;;;17.01;72.88
49585;BME280;35491;49.142;9.210;2023-05-22T02:00:51;99435.16;;;17.03;72.49
49585;BME280;35491;49.142;9.210;2023-05-22T02:02:05;99426.03;;;17.04;72.67
49585;BME280;35491;49.142;9.210;2023-05-22T02:03:10;99430.81;;;16.95;73.04
49585;BME280;35491;49.142;9.210;2023-05-22T02:04:18;99430.75;;;16.88;73.19
49585;BME280;35491;49.142;9.210;2023-05-22T02:05:20;99434.84;;;16.84;73.06
49585;BME280;35491;49.142;9.210;2023-05-22T02:06:28;99430.91;;;16.80;73.29
49585;BME280;35491;49.142;9.210;2023-05-22T02:07:33;99426.13;;;16.75;73.43
49585;BME280;35491;49.142;9.210;2023-05-22T02:08:40;99433.97;;;16.70;73.77
49585;BME280;35491;49.142;9.210;2023-05-22T02:09:44;99430.19;;;16.64;73.84
49585;BME280;35491;49.142;9.210;2023-05-22T02:10:51;99433.75;;;16.65;73.93
49585;BME280;35491;49.142;9.210;2023-05-22T02:11:57;99429.34;;;16.57;74.31
49585;BME280;35491;49.142;9.210;2023-05-22T02:13:03;99432.00;;;16.50;74.54
49585;BME280;35491;49.142;9.210;2023-05-22T02:14:05;99437.16;;;16.45;74.42
49585;BME280;35491;49.142;9.210;2023-05-22T02:15:11;99450.38;;;16.40;74.65
49585;BME280;35491;49.142;9.210;2023-05-22T02:16:13;99442.28;;;16.33;75.27
49585;BME280;35491;49.142;9.210;2023-05-22T02:17:21;99433.94;;;16.28;75.28
49585;BME280;35491;49.142;9.210;2023-05-22T02:18:25;99444.91;;;16.27;75.32
49585;BME280;35491;49.142;9.210;2023-05-22T02:19:33;99446.53;;;16.21;75.17
49585;BME280;35491;49.142;9.210;2023-05-22T02:20:34;99436.13;;;16.18;75.40
49585;BME280;35491;49.142;9.210;2023-05-22T02:21:38;99440.06;;;16.15;75.49
49585;BME280;35491;49.142;9.210;2023-05-22T02:22:40;99435.69;;;16.14;75.30
49585;BME280;35491;49.142;9.210;2023-05-22T02:23:45;99441.03;;;16.08;75.76
49585;BME280;35491;49.142;9.210;2023-05-22T02:24:47;99445.59;;;16.07;75.62
49585;BME280;35491;49.142;9.210;2023-05-22T02:25:51;99442.03;;;16.00;75.91
49585;BME280;35491;49.142;9.210;2023-05-22T02:26:52;99442.19;;;15.98;76.02
49585;BME280;35491;49.142;9.210;2023-05-22T02:27:56;99451.72;;;15.94;76.23
49585;BME280;35491;49.142;9.210;2023-05-22T02:28:57;99440.88;;;15.87;76.13
49585;BME280;35491;49.142;9.210;2023-05-22T02:30:01;99446.66;;;15.84;76.29
49585;BME280;35491;49.142;9.210;2023-05-22T02:31:03;99451.22;;;15.84;76.55
49585;BME280;35491;49.142;9.210;2023-05-22T02:32:08;99445.44;;;15.87;76.29
49585;BME280;35491;49.142;9.210;2023-05-22T02:33:11;99448.53;;;15.84;76.38
49585;BME280;35491;49.142;9.210;2023-05-22T02:34:17;99440.78;;;15.81;76.24
49585;BME280;35491;49.142;9.210;2023-05-22T02:35:19;99444.91;;;15.77;76.69
49585;BME280;35491;49.142;9.210;2023-05-22T02:36:22;99444.91;;;15.77;76.71
49585;BME280;35491;49.142;9.210;2023-05-22T02:37:25;99445.28;;;15.73;76.61
49585;BME280;35491;49.142;9.210;2023-05-22T02:38:29;99440.72;;;15.74;76.83
49585;BME280;35491;49.142;9.210;2023-05-22T02:39:30;99438.22;;;15.72;76.93
49585;BME280;35491;49.142;9.210;2023-05-22T02:40:34;99440.09;;;15.72;76.79
49585;BME280;35491;49.142;9.210;2023-05-22T02:41:36;99446.31;;;15.72;76.81
49585;BME280;35491;49.142;9.210;2023-05-22T02:42:40;99438.03;;;15.74;76.59
49585;BME280;35491;49.142;9.210;2023-05-22T02:43:41;99449.44;;;15.76;76.75
49585;BME280;35491;49.142;9.210;2023-05-22T02:44:46;99445.28;;;15.73;76.97
49585;BME280;35491;49.142;9.210;2023-05-22T02:45:47;99438.59;;;15.69;77.17
49585;BME280;35491;49.142;9.210;2023-05-22T02:46:51;99442.16;;;15.70;76.87
49585;BME280;35491;49.142;9.210;2023-05-22T02:47:52;99438.44;;;15.71;77.08
49585;BME280;35491;49.142;9.210;2023-05-22T02:48:59;99438.59;;;15.69;77.33
49585;BME280;35491;49.142;9.210;2023-05-22T02:50:01;99442.72;;;15.65;77.10
49585;BME280;35491;49.142;9.210;2023-05-22T02:51:07;99453.50;;;15.65;77.14
49585;BME280;35491;49.142;9.210;2023-05-22T02:52:08;99444.56;;;15.65;77.39
49585;BME280;35491;49.142;9.210;2023-05-22T02:53:12;99446.44;;;15.64;77.18
49585;BME280;35491;49.142;9.210;2023-05-22T02:54:14;99450.59;;;15.67;77.38
49585;BME280;35491;49.142;9.210;2023-05-22T02:55:18;99452.28;;;15.68;77.09
49585;BME280;35491;49.142;9.210;2023-05-22T02:56:19;99451.06;;;15.70;77.11
49585;BME280;35491;49.142;9.210;2023-05-22T02:57:23;99455.22;;;15.73;77.10
49585;BME280;35491;49.142;9.210;2023-05-22T02:58:25;99448.34;;;15.70;77.24
49585;BME280;35491;49.142;9.210;2023-05-22T02:59:28;99456.44;;;15.70;76.93
49585;BME280;35491;49.142;9.210;2023-05-22T03:00:30;99449.81;;;15.73;77.04
49585;BME280;35491;49.142;9.210;2023-05-22T03:01:34;99453.56;;;15.72;77.09
49585;BME280;35491;49.142;9.210;2023-05-22T03:02:36;99456.06;;;15.73;77.18
49585;BME280;35491;49.142;9.210;2023-05-22T03:03:39;99458.13;;;15.71;77.25
49585;BME280;35491;49.142;9.210;2023-05-22T03:04:43;99452.53;;;15.73;77.19
49585;BME280;35491;49.142;9.210;2023-05-22T03:05:48;99449.25;;;15.78;76.99
49585;BME280;35491;49.142;9.210;2023-05-22T03:06:50;99459.00;;;15.79;76.84
49585;BME280;35491;49.142;9.210;2023-05-22T03:07:54;99458.63;;;15.82;76.76
49585;BME280;35491;49.142;9.210;2023-05-22T03:08:56;99460.50;;;15.81;76.59
49585;BME280;35491;49.142;9.210;2023-05-22T03:09:59;99449.91;;;15.80;76.74
49585;BME280;35491;49.142;9.210;2023-05-22T03:11:01;99452.41;;;15.81;76.68
49585;BME280;35491;49.142;9.210;2023-05-22T03:12:05;99454.06;;;15.82;76.70
49585;BME280;35491;49.142;9.210;2023-05-22T03:13:07;99460.66;;;15.80;77.02
49585;BME280;35491;49.142;9.210;2023-05-22T03:14:11;99451.94;;;15.78;77.12
49585;BME280;35491;49.142;9.210;2023-05-22T03:15:12;99451.50;;;15.74;76.89
49585;BME280;35491;49.142;9.210;2023-05-22T03:16:17;99459.78;;;15.72;77.36
49585;BME280;35491;49.142;9.210;2023-05-22T03:17:21;99457.66;;;15.68;77.58
49585;BME280;35491;49.142;9.210;2023-05-22T03:18:24;99456.38;;;15.64;77.68
49585;BME280;35491;49.142;9.210;2023-05-22T03:19:26;99464.44;;;15.64;77.48
49585;BME280;35491;49.142;9.210;2023-05-22T03:20:33;99462.34;;;15.59;77.52
49585;BME280;35491;49.142;9.210;2023-05-22T03:21:36;99463.75;;;15.55;77.87
49585;BME280;35491;49.142;9.210;2023-05-22T03:22:41;99467.47;;;15.54;78.06
49585;BME280;35491;49.142;9.210;2023-05-22T03:23:43;99470.38;;;15.52;78.09
49585;BME280;35491;49.142;9.210;2023-05-22T03:24:47;99468.25;;;15.48;78.33
49585;BME280;35491;49.142;9.210;2023-05-22T03:25:49;99470.03;;;15.40;78.40
49585;BME280;35491;49.142;9.210;2023-05-22T03:26:54;99471.88;;;15.40;78.63
49585;BME280;35491;49.142;9.210;2023-05-22T03:28:05;99466.06;;;15.36;78.78
49585;BME280;35491;49.142;9.210;2023-05-22T03:29:13;99469.78;;;15.35;78.82
49585;BME280;35491;49.142;9.210;2023-05-22T03:30:15;99475.06;;;15.28;78.99
49585;BME280;35491;49.142;9.210;2023-05-22T03:31:32;99473.81;;;15.24;79.00
49585;BME280;35491;49.142;9.210;2023-05-22T03:32:40;99483.06;;;15.22;79.52
49585;BME280;35491;49.142;9.210;2023-05-22T03:33:44;99481.97;;;15.16;79.53
49585;BME280;35491;49.142;9.210;2023-05-22T03:34:46;99493.13;;;15.13;79.53
49585;BME280;35491;49.142;9.210;2023-05-22T03:35:52;99486.84;;;15.06;79.98
49585;BME280;35491;49.142;9.210;2023-05-22T03:36:54;99492.47;;;14.96;80.12
49585;BME280;35491;49.142;9.210;2023-05-22T03:37:58;99491.56;;;14.89;80.87
49585;BME280;35491;49.142;9.210;2023-05-22T03:38:59;99487.75;;;14.83;81.18
49585;BME280;35491;49.142;9.210;2023-05-22T03:40:05;99490.09;;;14.86;80.97
49585;BME280;35491;49.142;9.210;2023-05-22T03:41:07;99481.56;;;14.82;80.87
49585;BME280;35491;49.142;9.210;2023-05-22T03:42:11;99485.63;;;14.78;81.31
49585;BME280;35491;49.142;9.210;2023-05-22T03:43:13;99490.56;;;14.75;81.47
49585;BME280;35491;49.142;9.210;2023-05-22T03:44:18;99481.47;;;14.76;81.00
49585;BME280;35491;49.142;9.210;2023-05-22T03:45:19;99483.13;;;14.77;81.00
49585;BME280;35491;49.142;9.210;2023-05-22T03:46:24;99484.88;;;14.85;80.90
49585;BME280;35491;49.142;9.210;2023-05-22T03:47:25;99484.16;;;14.91;80.27
49585;BME280;35491;49.142;9.210;2023-05-22T03:48:31;99491.56;;;14.89;80.41
49585;BME280;35491;49.142;9.210;2023-05-22T03:49:32;99483.03;;;15.00;80.27
49585;BME280;35491;49.142;9.210;2023-05-22T03:50:36;99483.38;;;14.97;79.95
49585;BME280;35491;49.142;9.210;2023-05-22T03:51:40;99483.38;;;14.97;80.33
49585;BME280;35491;49.142;9.210;2023-05-22T03:52:44;99479.78;;;14.90;80.35
49585;BME280;35491;49.142;9.210;2023-05-22T03:53:46;99478.94;;;14.89;80.61
49585;BME280;35491;49.142;9.210;2023-05-22T03:54:50;99480.59;;;14.90;80.41
49585;BME280;35491;49.142;9.210;2023-05-22T03:55:53;99478.31;;;14.87;80.67
49585;BME280;35491;49.142;9.210;2023-05-22T03:56:57;99483.28;;;14.90;80.49
49585;BME280;35491;49.142;9.210;2023-05-22T03:57:59;99479.38;;;14.93;80.48
49585;BME280;35491;49.142;9.210;2023-05-22T03:59:02;99480.91;;;14.95;80.32
49585;BME280;35491;49.142;9.210;2023-05-22T04:00:05;99482.00;;;15.01;79.82
49585;BME280;35491;49.142;9.210;2023-05-22T04:01:14;99478.91;;;15.04;79.88
49585;BME280;35491;49.142;9.210;2023-05-22T04:02:16;99478.81;;;15.12;79.46
49585;BME280;35491;49.142;9.210;2023-05-22T04:03:20;99477.78;;;15.13;79.37
49585;BME280;35491;49.142;9.210;2023-05-22T04:04:22;99477.06;;;15.20;79.26
49585;BME280;35491;49.142;9.210;2023-05-22T04:05:27;99482.69;;;15.25;78.78
49585;BME280;35491;49.142;9.210;2023-05-22T04:06:31;99480.47;;;15.28;78.82
49585;BME280;35491;49.142;9.210;2023-05-22T04:07:45;99479.44;;;15.29;78.54
49585;BME280;35491;49.142;9.210;2023-05-22T04:08:51;99483.16;;;15.28;78.75
49585;BME280;35491;49.142;9.210;2023-05-22T04:09:55;99475.53;;;15.32;78.73
49585;BME280;35491;49.142;9.210;2023-05-22T04:10:56;99485.03;;;15.28;78.82
49585;BME280;35491;49.142;9.210;2023-05-22T04:12:00;99484.16;;;15.27;78.67
49585;BME280;35491;49.142;9.210;2023-05-22T04:13:02;99485.38;;;15.25;79.02
49585;BME280;35491;49.142;9.210;2023-05-22T04:14:07;99489.09;;;15.24;78.98
49585;BME280;35491;49.142;9.210;2023-05-22T04:15:09;99485.50;;;15.17;79.18
49585;BME280;35491;49.142;9.210;2023-05-22T04:16:13;99488.97;;;15.10;79.53
49585;BME280;35491;49.142;9.210;2023-05-22T04:17:18;99485.22;;;15.11;79.60
49585;BME280;35491;49.142;9.210;2023-05-22T04:18:22;99497.19;;;15.09;79.63
49585;BME280;35491;49.142;9.210;2023-05-22T04:19:24;99492.84;;;15.08;79.49
49585;BME280;35491;49.142;9.210;2023-05-22T04:20:29;99498.22;;;15.08;79.31
49585;BME280;35491;49.142;9.210;2023-05-22T04:21:30;99495.72;;;15.06;79.31
49585;BME280;35491;49.142;9.210;2023-05-22T04:22:35;99494.91;;;15.06;79.64
49585;BME280;35491;49.142;9.210;2023-05-22T04:23:40;99498.16;;;15.01;79.57
49585;BME280;35491;49.142;9.210;2023-05-22T04:24:45;99503.53;;;15.01;79.76
49585;BME280;35491;49.142;9.210;2023-05-22T04:25:49;99495.47;;;15.01;79.84
49585;BME280;35491;49.142;9.210;2023-05-22T04:26:54;99493.41;;;15.03;80.00
49585;BME280;35491;49.142;9.210;2023-05-22T04:27:56;99502.31;;;15.04;79.81
49585;BME280;35491;49.142;9.210;2023-05-22T04:29:17;99496.28;;;15.02;80.34
49585;BME280;35491;49.142;9.210;2023-05-22T04:30:21;99499.44;;;15.05;80.00
49585;BME280;35491;49.142;9.210;2023-05-22T04:31:26;99495.28;;;15.03;80.15
49585;BME280;35491;49.142;9.210;2023-05-22T04:32:30;99499.19;;;15.00;80.43
49585;BME280;35491;49.142;9.210;2023-05-22T04:33:31;99498.31;;;15.00;80.20
49585;BME280;35491;49.142;9.210;2023-05-22T04:34:38;99506.59;;;14.98;80.63
49585;BME280;35491;49.142;9.210;2023-05-22T04:35:41;99504.91;;;14.97;80.56
49585;BME280;35491;49.142;9.210;2023-05-22T04:36:45;99506.22;;;15.01;80.49
49585;BME280;35491;49.142;9.210;2023-05-22T04:37:47;99506.69;;;15.05;80.23
49585;BME280;35491;49.142;9.210;2023-05-22T04:38:55;99503.59;;;15.08;80.31
49585;BME280;35491;49.142;9.210;2023-05-22T04:40:30;99497.66;;;15.12;80.14
49585;BME280;35491;49.142;9.210;2023-05-22T04:41:34;99511.78;;;15.15;80.03
49585;BME280;35491;49.142;9.210;2023-05-22T04:42:38;99512.88;;;15.20;79.65
49585;BME280;35491;49.142;9.210;2023-05-22T04:43:42;99519.13;;;15.21;79.49
49585;BME280;35491;49.142;9.210;2023-05-22T04:44:43;99516.78;;;15.18;79.47
49585;BME280;35491;49.142;9.210;2023-05-22T04:45:48;99515.13;;;15.17;79.71
49585;BME280;35491;49.142;9.210;2023-05-22T04:46:50;99513.06;;;15.19;79.58
49585;BME280;35491;49.142;9.210;2023-05-22T04:47:58;99518.47;;;15.19;79.32
49585;BME280;35491;49.142;9.210;2023-05-22T04:49:03;99514.75;;;15.20;79.49
49585;BME280;35491;49.142;9.210;2023-05-22T04:50:08;99521.31;;;15.17;79.39
49585;BME280;35491;49.142;9.210;2023-05-22T04:51:10;99518.47;;;15.19;79.71
49585;BME280;35491;49.142;9.210;2023-05-22T04:52:14;99511.84;;;15.21;79.56
49585;BME280;35491;49.142;9.210;2023-05-22T04:53:16;99513.16;;;15.25;79.22
49585;BME280;35491;49.142;9.210;2023-05-22T04:54:22;99515.19;;;15.23;79.47
49585;BME280;35491;49.142;9.210;2023-05-22T04:55:23;99516.88;;;15.24;79.25
49585;BME280;35491;49.142;9.210;2023-05-22T04:56:27;99514.06;;;15.33;79.20
49585;BME280;35491;49.142;9.210;2023-05-22T04:57:29;99511.63;;;15.38;79.02
49585;BME280;35491;49.142;9.210;2023-05-22T04:58:33;99508.38;;;15.42;78.65
49585;BME280;35491;49.142;9.210;2023-05-22T04:59:35;99512.81;;;15.50;78.42
49585;BME280;35491;49.142;9.210;2023-05-22T05:00:40;99513.91;;;15.56;77.99
49585;BME280;35491;49.142;9.210;2023-05-22T05:01:42;99515.19;;;15.60;77.83
49585;BME280;35491;49.142;9.210;2023-05-22T05:02:47;99512.13;;;15.63;77.76
49585;BME280;35491;49.142;9.210;2023-05-22T05:03:48;99516.13;;;15.67;77.68
49585;BME280;35491;49.142;9.210;2023-05-22T05:04:52;99516.38;;;15.72;77.37
49585;BME280;35491;49.142;9.210;2023-05-22T05:05:53;99510.03;;;15.80;77.26
49585;BME280;35491;49.142;9.210;2023-05-22T05:06:57;99504.75;;;15.87;77.15
49585;BME280;35491;49.142;9.210;2023-05-22T05:07:58;99511.41;;;15.91;76.71
49585;BME280;35491;49.142;9.210;2023-05-22T05:09:02;99505.63;;;15.94;76.82
49585;BME280;35491;49.142;9.210;2023-05-22T05:10:07;99502.34;;;15.99;76.55
49585;BME280;35491;49.142;9.210;2023-05-22T05:11:11;99504.47;;;16.03;76.26
49585;BME280;35491;49.142;9.210;2023-05-22T05:12:12;99503.25;;;16.06;76.58
49585;BME280;35491;49.142;9.210;2023-05-22T05:13:16;99506.66;;;16.15;76.06
49585;BME280;35491;49.142;9.210;2023-05-22T05:14:19;99505.59;;;16.16;75.96
49585;BME280;35491;49.142;9.210;2023-05-22T05:15:24;99501.63;;;16.12;76.14
49585;BME280;35491;49.142;9.210;2023-05-22T05:16:27;99498.28;;;16.10;76.04
49585;BME280;35491;49.142;9.210;2023-05-22T05:17:30;99507.03;;;16.12;76.21
49585;BME280;35491;49.142;9.210;2023-05-22T05:18:32;99500.34;;;16.08;76.33
49585;BME280;35491;49.142;9.210;2023-05-22T05:19:36;99501.63;;;16.12;76.08
49585;BME280;35491;49.142;9.210;2023-05-22T05:20:37;99507.69;;;16.14;75.82
49585;BME280;35491;49.142;9.210;2023-05-22T05:21:41;99509.16;;;16.16;75.72
49585;BME280;35491;49.142;9.210;2023-05-22T05:22:42;99506.25;;;16.18;75.97
49585;BME280;35491;49.142;9.210;2023-05-22T05:23:47;99509.59;;;16.20;75.62
49585;BME280;35491;49.142;9.210;2023-05-22T05:24:48;99505.41;;;16.17;75.94
49585;BME280;35491;49.142;9.210;2023-05-22T05:25:54;99505.22;;;16.19;75.65
49585;BME280;35491;49.142;9.210;2023-05-22T05:26:56;99501.88;;;16.17;76.03
49585;BME280;35491;49.142;9.210;2023-05-22T05:27:59;99504.34;;;16.12;76.04
49585;BME280;35491;49.142;9.210;2023-05-22T05:29:05;99505.59;;;16.16;76.05
49585;BME280;35491;49.142;9.210;2023-05-22T05:30:12;99506.19;;;16.11;76.01
49585;BME280;35491;49.142;9.210;2023-05-22T05:31:42;99507.03;;;16.12;76.14
49585;BME280;35491;49.142;9.210;2023-05-22T05:33:10;99509.78;;;16.18;75.90
49585;BME280;35491;49.142;9.210;2023-05-22T05:34:39;99511.25;;;16.21;75.85
49585;BME280;35491;49.142;9.210;2023-05-22T07:56:36;99502.13;;;22.23;59.34
49585;BME280;35491;49.142;9.210;2023-05-22T07:57:41;99499.03;;;22.19;59.05
49585;BME280;35491;49.142;9.210;2023-05-22T07:58:53;99500.19;;;22.00;59.73
49585;BME280;35491;49.142;9.210;2023-05-22T07:59:57;99505.66;;;22.23;59.22
49585;BME280;35491;49.142;9.210;2023-05-22T08:01:13;99502.34;;;22.21;59.27
49585;BME280;35491;49.142;9.210;2023-05-22T08:02:18;99497.03;;;22.15;59.35
49585;BME280;35491;49.142;9.210;2023-05-22T08:06:03;99492.81;;;22.54;58.29
49585;BME280;35491;49.142;9.210;2023-05-22T08:07:06;99497.78;;;22.57;58.57
49585;BME280;35491;49.142;9.210;2023-05-22T08:08:08;99499.66;;;22.57;58.07
49585;BME280;35491;49.142;9.210;2023-05-22T08:09:13;99497.19;;;22.55;57.87